Main page


Airports :

Beja, Portugal

Beja Airbase

latitude: 38-04-40N, longitude: 007-55-57W, elevation: 193 m

METAR: missing

Time: 23:19 (23:19 UTC)


The report was made 6 hours and 14 minutes ago, at 17:05 UTC
Forecast valid from 22 at 18 UTC to 23 at 18 UTC
Wind 10 kt from the Northwest
Visibility 10 km or more
Few clouds at a height of 4000 ft
from 23 at 00 UTC to 23 at 02 UTC
Wind 5 kt from the West
from 23 at 07 UTC to 23 at 10 UTC
Wind 12 kt from the West
Few clouds at a height of 1500 ft
Broken clouds at a height of 2500 ft
from 23 at 09 UTC to 23 at 18 UTC
Visibility: 4000 m
Scattered clouds at a height of 600 ft
Broken clouds at a height of 1400 ft
light drizzle, rain, mist
Probability 30% :
from 23 at 12 UTC to 23 at 18 UTC
Wind 15 kt from the West with gusts up to 25 kt

TAF: LPBJ 221705Z 2218/2318 32010KT 9999 FEW040 BECMG 2300/2302 27005KT BECMG 2307/2310 27012KT FEW015 BKN025 TEMPO 2309/2318 4000 -DZRA BR SCT006 BKN014 PROB30 TEMPO 2312/2318 28015G25KT

Weather observations and forecasts of more than 4000 airports (METAR and TAF reports).

The available stations are represented by yellow and red dots on the map.

Hover mouse over dot to see the name of the station.

Then click to see weather observations and forecasts.

To change the map : click on the green buttons with a black cross to zoom in, on the green button with a dash to zoom out, or on the green arrows for adjacent maps.